Time;durP1;ratioP1;P1;durP2;ratioP2;P2;SDS_P1;SDS_P2;PMS_P1;PMS_P2;Temp;Humidity;BMP_temperature;BMP_pressure;BME280_temperature;BME280_humidity;BME280_pressure;Samples;Min_cycle;Max_cycle;Signal;HPM_P1;HPM_P2
2022/03/28 00:02:23;;;;;;;4.93;2.20;;;;;;;-2.88;100.00;100807.70;1820901;79;21436;-69
2022/03/28 00:04:50;;;;;;;3.13;1.83;;;;;;;-2.86;100.00;100814.25;1820883;79;21522;-69
2022/03/28 00:07:18;;;;;;;4.97;2.00;;;;;;;-2.88;100.00;100811.67;1821253;79;21022;-69
2022/03/28 00:09:47;;;;;;;5.13;1.83;;;;;;;-2.88;100.00;100814.31;1820798;79;20998;-69
2022/03/28 00:12:16;;;;;;;2.63;1.73;;;;;;;-2.90;100.00;100808.23;1821085;79;21527;-69
2022/03/28 00:14:43;;;;;;;2.40;1.83;;;;;;;-2.92;100.00;100806.13;1820811;79;21479;-69
2022/03/28 00:17:10;;;;;;;3.53;1.87;;;;;;;-2.97;100.00;100809.42;1821226;79;20983;-69
2022/03/28 00:19:39;;;;;;;3.90;2.00;;;;;;;-2.99;100.00;100817.02;1820800;79;20971;-69
2022/03/28 00:22:08;;;;;;;4.63;2.30;;;;;;;-3.03;100.00;100811.47;1821229;79;21062;-68
2022/03/28 00:24:36;;;;;;;5.97;2.03;;;;;;;-3.06;100.00;100817.77;1820808;79;21491;-68
2022/03/28 00:27:04;;;;;;;7.50;2.30;;;;;;;-3.06;100.00;100819.94;1820972;79;21006;-69
2022/03/28 00:29:31;;;;;;;3.67;2.10;;;;;;;-3.04;100.00;100817.23;1820572;79;21077;-69
2022/03/28 00:31:59;;;;;;;2.43;2.10;;;;;;;-3.04;100.00;100819.87;1820748;79;21073;-69
2022/03/28 00:34:26;;;;;;;5.50;2.30;;;;;;;-3.07;100.00;100817.35;1824667;79;21034;-68
2022/03/28 00:36:54;;;;;;;4.57;2.30;;;;;;;-3.09;100.00;100818.73;1821586;79;21011;-69
2022/03/28 00:39:22;;;;;;;3.23;1.90;;;;;;;-3.09;100.00;100818.73;1820770;79;21065;-69
2022/03/28 00:41:51;;;;;;;3.93;2.03;;;;;;;-3.04;100.00;100818.55;1820964;79;21030;-68
2022/03/28 00:44:19;;;;;;;3.40;2.13;;;;;;;-2.99;100.00;100822.31;1821121;79;21046;-69
2022/03/28 00:46:46;;;;;;;2.40;2.00;;;;;;;-2.98;100.00;100817.42;1791168;79;21539;-69
2022/03/28 00:49:13;;;;;;;3.20;2.13;;;;;;;-2.98;100.00;100816.11;1811548;78;21035;-70
2022/03/28 00:51:41;;;;;;;3.00;2.10;;;;;;;-2.98;100.00;100816.11;1796115;80;21555;-68
2022/03/28 00:54:09;;;;;;;5.20;2.30;;;;;;;-3.02;100.00;100818.02;1810751;79;21030;-68
2022/03/28 00:56:37;;;;;;;2.87;2.40;;;;;;;-3.02;100.00;100821.98;1820944;79;21585;-68
2022/03/28 00:59:05;;;;;;;3.93;2.17;;;;;;;-3.01;100.00;100815.78;1821056;78;21523;-68
2022/03/28 01:01:33;;;;;;;5.50;2.40;;;;;;;-3.01;100.00;100826.38;1820880;79;21065;-68
2022/03/28 01:04:04;;;;;;;8.90;3.03;;;;;;;-3.01;100.00;100822.41;1821195;79;21027;-68
2022/03/28 01:06:32;;;;;;;6.53;2.93;;;;;;;-3.01;100.00;100828.13;1821016;79;21042;-68
2022/03/28 01:09:00;;;;;;;9.70;3.43;;;;;;;-3.07;100.00;100830.11;1821000;79;21018;-68
2022/03/28 01:11:28;;;;;;;6.43;3.33;;;;;;;-3.12;100.00;100840.02;1821091;79;21503;-68
2022/03/28 01:13:56;;;;;;;9.53;3.77;;;;;;;-3.23;100.00;100830.36;1791599;79;21085;-68
2022/03/28 01:16:23;;;;;;;9.43;3.70;;;;;;;-3.36;100.00;100824.73;1821164;79;21499;-68
2022/03/28 01:18:51;;;;;;;7.13;3.33;;;;;;;-3.46;100.00;100832.63;1820918;79;21053;-68
2022/03/28 01:21:18;;;;;;;11.47;4.17;;;;;;;-3.59;100.00;100832.27;1820889;79;21515;-67
2022/03/28 01:23:46;;;;;;;12.40;3.83;;;;;;;-3.66;100.00;100839.58;1821546;79;21473;-67
2022/03/28 01:26:17;;;;;;;10.47;4.10;;;;;;;-3.71;100.00;100840.22;1821198;79;21014;-68
2022/03/28 01:28:44;;;;;;;11.70;4.30;;;;;;;-3.79;100.00;100837.00;1821126;79;21006;-68
2022/03/28 01:31:12;;;;;;;14.40;4.47;;;;;;;-3.88;100.00;100832.97;1821066;79;21535;-68
2022/03/28 01:33:39;;;;;;;11.10;5.00;;;;;;;-3.94;100.00;100833.19;1791441;79;21022;-69
2022/03/28 01:36:06;;;;;;;13.87;4.37;;;;;;;-4.01;100.00;100836.52;1820959;79;21026;-69
2022/03/28 01:38:34;;;;;;;13.23;4.70;;;;;;;-4.04;100.00;100835.77;1821450;79;21519;-68
2022/03/28 01:41:01;;;;;;;13.00;5.40;;;;;;;-4.07;100.00;100835.45;1821316;79;21037;-68
2022/03/28 01:43:29;;;;;;;17.00;5.53;;;;;;;-4.10;100.00;100835.55;1791493;79;21542;-68
2022/03/28 01:45:56;;;;;;;16.67;5.33;;;;;;;-4.14;100.00;100835.28;1820933;79;21042;-68
2022/03/28 01:48:24;;;;;;;12.80;4.50;;;;;;;-4.16;100.00;100841.08;1819840;79;21030;-68
2022/03/28 01:50:52;;;;;;;15.93;5.30;;;;;;;-4.17;100.00;100841.98;1794523;80;21035;-69
2022/03/28 01:53:20;;;;;;;10.40;4.23;;;;;;;-4.20;100.00;100848.70;1801246;79;20986;-68
2022/03/28 01:55:47;;;;;;;13.40;4.50;;;;;;;-4.24;100.00;100857.19;1820926;79;21480;-69
2022/03/28 01:58:14;;;;;;;13.80;4.57;;;;;;;-4.26;100.00;100857.72;1791784;79;21005;-69
2022/03/28 02:00:42;;;;;;;17.60;4.83;;;;;;;-4.28;100.00;100859.55;1820975;78;21550;-68
2022/03/28 02:03:09;;;;;;;14.50;4.87;;;;;;;-4.32;100.00;100859.28;1821171;79;21022;-68
2022/03/28 02:05:37;;;;;;;9.27;3.80;;;;;;;-4.34;100.00;100865.52;1791554;79;21034;-69
2022/03/28 02:08:07;;;;;;;12.23;4.07;;;;;;;-4.37;100.00;100870.46;1821215;79;21065;-69
2022/03/28 02:10:35;;;;;;;8.50;3.77;;;;;;;-4.41;100.00;100866.19;1821082;79;21081;-69
2022/03/28 02:13:02;;;;;;;9.03;4.07;;;;;;;-4.43;100.00;100874.63;1820933;79;21523;-68
2022/03/28 02:15:31;;;;;;;9.97;4.00;;;;;;;-4.46;100.00;100868.13;1820982;79;21018;-68
2022/03/28 02:17:59;;;;;;;9.60;3.90;;;;;;;-4.47;100.00;100859.36;1821114;79;21542;-69
2022/03/28 02:20:27;;;;;;;12.23;3.57;;;;;;;-4.49;100.00;100857.23;1820895;79;21579;-68
2022/03/28 02:22:54;;;;;;;9.10;3.80;;;;;;;-4.49;100.00;100862.98;1821963;79;21018;-68
2022/03/28 02:25:22;;;;;;;9.00;3.80;;;;;;;-4.51;100.00;100862.18;1822845;79;21530;-68
2022/03/28 02:27:50;;;;;;;7.40;4.33;;;;;;;-4.52;100.00;100859.12;1820686;79;21058;-68
2022/03/28 02:30:18;;;;;;;11.03;3.73;;;;;;;-4.55;100.00;100857.47;1820728;79;20987;-68
2022/03/28 02:32:45;;;;;;;13.70;4.50;;;;;;;-4.57;100.00;100863.23;1820912;79;21492;-68
2022/03/28 02:35:14;;;;;;;9.43;4.10;;;;;;;-4.59;100.00;100871.20;1820939;79;21030;-68
2022/03/28 02:37:43;;;;;;;10.47;3.90;;;;;;;-4.61;100.00;100877.00;1820930;79;21022;-68
2022/03/28 02:40:12;;;;;;;9.13;3.97;;;;;;;-4.62;100.00;100871.77;1820876;79;21026;-68
2022/03/28 02:42:39;;;;;;;6.90;3.67;;;;;;;-4.65;100.00;100875.39;1820922;79;21033;-68
2022/03/28 02:45:09;;;;;;;10.10;3.93;;;;;;;-4.68;100.00;100886.05;1820909;79;21018;-68
2022/03/28 02:47:36;;;;;;;9.27;3.77;;;;;;;-4.70;100.00;100876.01;1821119;79;21007;-68
2022/03/28 02:50:05;;;;;;;13.47;3.80;;;;;;;-4.69;100.00;100880.39;1802819;79;21519;-68
2022/03/28 02:52:33;;;;;;;8.83;4.20;;;;;;;-4.69;100.00;100877.75;1796394;80;20987;-68
2022/03/28 02:55:01;;;;;;;11.23;3.90;;;;;;;-4.71;100.00;100878.70;1830137;78;20989;-67
2022/03/28 02:57:29;;;;;;;7.87;3.33;;;;;;;-4.72;100.00;100892.83;1832273;78;21546;-68
2022/03/28 02:59:56;;;;;;;9.67;3.20;;;;;;;-4.72;100.00;100888.86;1831415;78;21588;-67
2022/03/28 03:02:24;;;;;;;6.00;3.20;;;;;;;-4.73;100.00;100887.98;1826131;78;21476;-68
2022/03/28 03:04:52;;;;;;;8.90;3.50;;;;;;;-4.71;100.00;100888.81;1826183;78;21018;-68
2022/03/28 03:07:20;;;;;;;9.33;3.17;;;;;;;-4.71;100.00;100889.25;1826153;78;21014;-69
2022/03/28 03:09:49;;;;;;;8.43;4.13;;;;;;;-4.72;100.00;100892.36;1826012;78;20970;-67
2022/03/28 03:12:16;;;;;;;8.03;3.50;;;;;;;-4.74;100.00;100895.98;1794443;78;21534;-68
2022/03/28 03:14:44;;;;;;;11.20;3.80;;;;;;;-4.75;100.00;100896.41;1794474;78;21464;-68
2022/03/28 03:17:11;;;;;;;8.83;3.67;;;;;;;-4.76;100.00;100899.98;1826214;78;21542;-67
2022/03/28 03:19:40;;;;;;;10.50;4.50;;;;;;;-4.78;100.00;100898.72;1794481;78;21014;-68
2022/03/28 03:22:08;;;;;;;11.60;4.47;;;;;;;-4.78;100.00;100902.67;1826126;78;21554;-68
2022/03/28 03:24:35;;;;;;;8.43;3.80;;;;;;;-4.78;100.00;100903.11;1826252;78;20982;-69
2022/03/28 03:27:03;;;;;;;12.57;4.30;;;;;;;-4.78;100.00;100911.91;1826025;78;21050;-68
2022/03/28 03:29:31;;;;;;;13.83;5.40;;;;;;;-4.79;100.00;100908.84;1826371;78;21002;-68
2022/03/28 03:31:58;;;;;;;12.77;4.37;;;;;;;-4.78;100.00;100914.98;1826263;78;21049;-68
2022/03/28 03:34:26;;;;;;;11.03;4.00;;;;;;;-4.80;100.00;100922.09;1825912;78;20998;-68
2022/03/28 03:36:54;;;;;;;9.43;4.07;;;;;;;-4.81;100.00;100923.88;1825941;78;21026;-68
2022/03/28 03:39:22;;;;;;;9.90;3.73;;;;;;;-4.80;100.00;100932.64;1826347;78;21018;-68
2022/03/28 03:41:50;;;;;;;10.63;3.80;;;;;;;-4.80;100.00;100930.89;1826415;78;21014;-68
2022/03/28 03:44:17;;;;;;;9.40;3.80;;;;;;;-4.78;100.00;100938.73;1826037;78;21045;-68
2022/03/28 03:46:45;;;;;;;7.17;3.57;;;;;;;-4.78;100.00;100944.89;1826393;78;21014;-68
2022/03/28 03:49:12;;;;;;;8.27;3.87;;;;;;;-4.80;100.00;100945.41;1794123;78;21053;-67
2022/03/28 03:51:40;;;;;;;6.23;3.77;;;;;;;-4.80;100.00;100940.12;1825978;78;21100;-67
2022/03/28 03:54:07;;;;;;;10.13;3.83;;;;;;;-4.76;100.00;100942.20;1824551;78;21037;-67
2022/03/28 03:56:35;;;;;;;8.03;3.67;;;;;;;-4.73;100.00;100947.82;1800074;79;21123;-68
2022/03/28 03:59:02;;;;;;;15.93;4.37;;;;;;;-4.69;100.00;100941.09;1822990;79;21495;-68
2022/03/28 04:01:30;;;;;;;10.13;3.50;;;;;;;-4.63;100.00;100942.18;1826469;78;21057;-68
2022/03/28 04:03:57;;;;;;;8.43;3.30;;;;;;;-4.58;100.00;100949.48;1828803;78;21514;-68
2022/03/28 04:06:26;;;;;;;9.17;3.60;;;;;;;-4.52;100.00;100949.73;1828589;78;21009;-68
2022/03/28 04:08:54;;;;;;;11.37;4.23;;;;;;;-4.45;100.00;100952.56;1796945;78;20983;-68
2022/03/28 04:11:24;;;;;;;6.60;3.43;;;;;;;-4.40;100.00;100954.59;1830567;78;21010;-67
2022/03/28 04:13:52;;;;;;;9.77;3.70;;;;;;;-4.33;100.00;100960.52;1829179;78;21565;-68
2022/03/28 04:16:21;;;;;;;6.03;2.83;;;;;;;-4.26;100.00;100955.43;1828641;78;21022;-68
2022/03/28 04:18:49;;;;;;;6.03;3.13;;;;;;;-4.18;100.00;100959.58;1828752;78;21506;-68
2022/03/28 04:21:17;;;;;;;7.83;3.70;;;;;;;-4.11;100.00;100964.58;1828632;78;21531;-68
2022/03/28 04:23:45;;;;;;;8.07;3.03;;;;;;;-4.04;100.00;100958.62;1828675;78;21544;-67
2022/03/28 04:26:13;;;;;;;9.07;3.20;;;;;;;-3.98;100.00;100957.09;1828970;78;20974;-67
2022/03/28 04:28:40;;;;;;;8.23;3.17;;;;;;;-3.92;100.00;100958.17;1828436;78;21084;-67
2022/03/28 04:31:09;;;;;;;6.27;3.07;;;;;;;-3.87;100.00;100962.84;1829139;78;21455;-67
2022/03/28 04:33:37;;;;;;;6.03;3.27;;;;;;;-3.82;100.00;100966.17;1828884;78;21057;-68
2022/03/28 04:36:05;;;;;;;8.90;3.10;;;;;;;-3.77;100.00;100967.77;1829361;78;21026;-67
2022/03/28 04:38:32;;;;;;;7.03;2.77;;;;;;;-3.72;100.00;100971.11;1796820;78;21057;-68
2022/03/28 04:41:00;;;;;;;7.43;3.50;;;;;;;-3.70;100.00;100967.51;1829199;78;21018;-67
2022/03/28 04:43:27;;;;;;;3.97;2.67;;;;;;;-3.66;100.00;100968.25;1828692;78;21049;-67
2022/03/28 04:45:55;;;;;;;6.80;3.30;;;;;;;-3.63;100.00;100958.86;1829109;78;21500;-67
2022/03/28 04:48:23;;;;;;;8.73;3.57;;;;;;;-3.58;100.00;100968.80;1827865;78;21006;-67
2022/03/28 04:50:50;;;;;;;6.50;3.20;;;;;;;-3.52;100.00;100961.98;1798715;80;21039;-68
2022/03/28 04:53:17;;;;;;;6.10;3.20;;;;;;;-3.46;100.00;100967.48;1804287;79;21033;-69
2022/03/28 04:55:45;;;;;;;5.00;3.10;;;;;;;-3.37;100.00;100960.98;1791825;79;21018;-69
2022/03/28 04:58:12;;;;;;;6.50;3.17;;;;;;;-3.30;100.00;100955.39;1823641;79;21065;-68
2022/03/28 05:00:40;;;;;;;5.90;3.10;;;;;;;-3.18;100.00;100954.52;1792324;78;21045;-68
2022/03/28 05:03:07;;;;;;;8.10;3.30;;;;;;;-3.09;100.00;100961.61;1827164;78;21510;-70
2022/03/28 05:05:36;;;;;;;10.13;3.40;;;;;;;-2.95;100.00;100966.83;1797658;78;21073;-68
2022/03/28 05:08:04;;;;;;;6.07;2.90;;;;;;;-2.82;100.00;100967.18;1827098;78;20994;-68
2022/03/28 05:10:31;;;;;;;4.97;3.13;;;;;;;-2.69;100.00;100963.97;1826737;78;21026;-69
2022/03/28 05:12:59;;;;;;;5.57;3.10;;;;;;;-2.56;100.00;100971.41;1826950;78;21017;-69
2022/03/28 05:15:27;;;;;;;9.30;3.10;;;;;;;-2.43;100.00;100978.36;1826664;78;21050;-68
2022/03/28 05:17:54;;;;;;;7.77;3.00;;;;;;;-2.30;100.00;100980.90;1827099;78;21531;-68
2022/03/28 05:20:22;;;;;;;5.37;3.07;;;;;;;-2.12;100.00;100981.89;1797273;78;20994;-69
2022/03/28 05:22:49;;;;;;;12.13;3.90;;;;;;;-1.97;100.00;100974.56;1797303;78;21069;-69
2022/03/28 05:25:17;;;;;;;17.03;9.00;;;;;;;-1.83;100.00;100971.30;1826946;78;21088;-68
2022/03/28 05:27:45;;;;;;;15.30;6.43;;;;;;;-1.70;100.00;100963.65;1797122;78;20986;-69
2022/03/28 05:30:12;;;;;;;14.00;5.40;;;;;;;-1.58;100.00;100960.44;1797454;78;20994;-68
2022/03/28 05:32:42;;;;;;;15.37;6.30;;;;;;;-1.44;100.00;100954.49;1826892;78;21244;-68
2022/03/28 05:35:10;;;;;;;10.93;3.30;;;;;;;-1.33;100.00;100959.30;1826981;78;21045;-69
2022/03/28 05:37:38;;;;;;;6.50;4.87;;;;;;;-1.25;100.00;100954.97;1827152;78;21022;-69
2022/03/28 05:40:07;;;;;;;6.00;3.00;;;;;;;-1.18;100.00;100963.03;1797437;78;20987;-70
2022/03/28 05:42:34;;;;;;;6.40;3.07;;;;;;;-1.11;100.00;100961.80;1797453;78;20994;-70
2022/03/28 05:45:03;;;;;;;7.93;3.57;;;;;;;-0.99;100.00;100957.70;1826795;78;21066;-69
2022/03/28 05:47:31;;;;;;;6.13;3.50;;;;;;;-0.81;100.00;100954.13;1824284;78;21062;-70
2022/03/28 05:49:58;;;;;;;5.77;3.47;;;;;;;-0.57;100.00;100960.48;1806799;78;21075;-69
2022/03/28 05:52:25;;;;;;;13.57;7.57;;;;;;;-0.29;100.00;100965.73;1797888;80;21036;-69
2022/03/28 05:54:52;;;;;;;5.80;3.20;;;;;;;-0.04;100.00;100971.95;1828066;78;21519;-70
2022/03/28 05:57:20;;;;;;;4.13;2.87;;;;;;;0.13;100.00;100976.41;1832226;78;21061;-69
2022/03/28 05:59:47;;;;;;;4.57;2.80;;;;;;;0.25;100.00;100966.44;1831873;78;21084;-69
2022/03/28 06:02:15;;;;;;;9.83;4.30;;;;;;;0.45;100.00;100964.50;1829613;78;21073;-69
2022/03/28 06:04:42;;;;;;;14.50;5.43;;;;;;;0.61;100.00;100968.03;1829823;78;21016;-68
2022/03/28 06:07:10;;;;;;;11.93;5.30;;;;;;;0.70;99.40;100975.51;1828811;78;21018;-69
2022/03/28 06:09:38;;;;;;;11.57;5.57;;;;;;;0.78;96.87;100969.78;1828758;78;21029;-69
2022/03/28 06:12:08;;;;;;;10.83;4.73;;;;;;;0.88;97.54;100968.30;1828995;78;21026;-68
2022/03/28 06:14:35;;;;;;;11.50;3.67;;;;;;;1.01;93.88;100965.83;1796948;78;21541;-69
2022/03/28 06:17:03;;;;;;;4.90;3.40;;;;;;;1.05;90.89;100981.16;1829063;78;21029;-68
2022/03/28 06:19:32;;;;;;;6.43;3.77;;;;;;;1.08;90.34;100980.95;1828747;78;21021;-69
2022/03/28 06:21:59;;;;;;;4.43;2.70;;;;;;;1.13;87.71;100976.23;1828854;78;20986;-69
2022/03/28 06:24:27;;;;;;;5.73;3.30;;;;;;;1.15;86.79;100988.98;1829144;78;21534;-69
2022/03/28 06:26:54;;;;;;;9.53;5.37;;;;;;;1.16;87.27;100982.72;1828643;78;21034;-69
2022/03/28 06:29:21;;;;;;;4.47;3.10;;;;;;;1.29;90.33;100984.20;1828923;78;21065;-69
2022/03/28 06:31:49;;;;;;;6.10;3.33;;;;;;;1.48;92.59;100990.67;1830772;78;21020;-70
2022/03/28 06:34:16;;;;;;;4.93;3.07;;;;;;;1.66;94.48;100977.58;1823456;78;21023;-69
2022/03/28 06:36:45;;;;;;;4.07;3.00;;;;;;;1.82;92.79;100976.19;1827400;78;21536;-67
2022/03/28 06:39:14;;;;;;;5.63;3.10;;;;;;;1.93;93.39;100982.24;1825607;78;21106;-69
2022/03/28 06:41:43;;;;;;;9.73;5.03;;;;;;;2.11;89.91;100978.05;1825882;78;21071;-68
2022/03/28 06:44:13;;;;;;;9.70;3.97;;;;;;;2.22;87.48;100975.11;1825886;78;21004;-67
2022/03/28 06:46:43;;;;;;;4.97;3.27;;;;;;;2.37;87.32;100968.44;1825760;78;21082;-70
2022/03/28 06:49:10;;;;;;;8.70;3.30;;;;;;;2.72;87.12;100964.03;1830332;78;21060;-69
2022/03/28 06:51:37;;;;;;;11.60;4.43;;;;;;;2.78;78.53;100964.51;1838524;78;21048;-68
2022/03/28 06:54:05;;;;;;;3.97;2.80;;;;;;;2.82;75.77;100955.81;1836854;78;21027;-69
2022/03/28 06:56:36;;;;;;;4.53;2.70;;;;;;;2.87;70.86;100963.06;1834750;78;21015;-69
2022/03/28 06:59:03;;;;;;;6.40;3.00;;;;;;;2.80;68.11;100970.61;1836482;78;20999;-68
2022/03/28 07:01:36;;;;;;;5.43;3.20;;;;;;;2.87;67.28;100968.41;1834883;78;21534;-70
2022/03/28 07:04:14;;;;;;;5.23;3.10;;;;;;;2.98;66.75;100978.39;1799130;78;21576;-69
2022/03/28 07:06:50;;;;;;;8.07;3.23;;;;;;;3.08;65.50;100967.95;1831978;78;21115;-69
2022/03/28 07:09:17;;;;;;;;;;;;;;;3.26;64.51;100974.78;1828227;78;21633;-69
2022/03/28 07:11:45;;;;;;;3.27;2.27;;;;;;;3.40;58.86;100965.85;1826518;78;20094;-69
2022/03/28 07:14:13;;;;;;;8.23;2.80;;;;;;;3.44;56.42;100977.20;1822003;78;20981;-69
2022/03/28 07:16:41;;;;;;;13.10;5.70;;;;;;;3.50;54.34;100977.62;1797174;79;21099;-69
2022/03/28 07:19:08;;;;;;;6.37;3.40;;;;;;;3.64;54.28;100978.04;1823676;78;21008;-70
2022/03/28 07:21:37;;;;;;;4.33;2.80;;;;;;;3.91;53.55;100970.43;1830712;78;21050;-69
2022/03/28 07:24:05;;;;;;;5.97;3.13;;;;;;;4.18;52.95;100959.16;1805113;78;21019;-70
2022/03/28 07:26:34;;;;;;;5.47;2.97;;;;;;;4.29;51.63;100956.22;1803978;78;21480;-69
2022/03/28 07:29:02;;;;;;;4.10;2.60;;;;;;;4.40;51.21;100945.59;1827511;78;21003;-69
2022/03/28 07:31:30;;;;;;;6.40;3.13;;;;;;;4.50;46.54;100937.77;1828245;78;21062;-68
2022/03/28 07:34:29;;;;;;;4.13;2.50;;;;;;;4.63;43.68;100924.34;1826700;78;21524;-68
2022/03/28 07:36:28;;;;;;;7.70;3.47;;;;;;;4.87;42.07;100928.37;1777726;78;21015;-68
2022/03/28 07:38:56;;;;;;;5.90;2.60;;;;;;;5.04;41.17;100921.79;1829616;78;20968;-68
2022/03/28 07:41:23;;;;;;;5.63;2.67;;;;;;;5.31;40.97;100926.91;1826392;78;21071;-69
2022/03/28 07:43:51;;;;;;;9.50;3.47;;;;;;;5.27;39.71;100920.91;1830921;78;21007;-68
2022/03/28 07:46:21;;;;;;;4.93;2.57;;;;;;;5.27;40.03;100931.64;1826002;77;21016;-70
2022/03/28 07:48:49;;;;;;;6.53;2.93;;;;;;;5.28;39.88;100928.00;1820521;78;21086;-70
2022/03/28 07:51:16;;;;;;;4.97;2.63;;;;;;;5.24;39.83;100925.66;1773265;78;21043;-70
2022/03/28 07:53:44;;;;;;;6.93;2.80;;;;;;;5.28;39.93;100913.75;1785566;80;21029;-69
2022/03/28 07:56:11;;;;;;;8.47;3.27;;;;;;;5.38;39.73;100911.21;1798640;78;21003;-68
2022/03/28 07:58:39;;;;;;;35.20;15.43;;;;;;;5.44;38.69;100908.08;1830411;78;21110;-68
2022/03/28 08:01:06;;;;;;;18.63;5.63;;;;;;;5.53;38.92;100906.03;1830201;77;21054;-69
2022/03/28 08:03:34;;;;;;;14.43;5.27;;;;;;;5.74;38.67;100893.26;1830347;78;21519;-70
2022/03/28 08:06:02;;;;;;;9.93;3.97;;;;;;;5.85;38.61;100908.06;1828961;78;21042;-69
2022/03/28 08:08:32;;;;;;;16.93;5.40;;;;;;;5.99;38.25;100898.97;1830518;78;21046;-69
2022/03/28 08:11:00;;;;;;;5.53;2.60;;;;;;;6.13;38.03;100896.05;1830915;78;21544;-68
2022/03/28 08:13:28;;;;;;;5.90;3.23;;;;;;;6.32;36.91;100900.81;1830986;78;21488;-69
2022/03/28 08:15:56;;;;;;;5.17;2.67;;;;;;;6.23;36.28;100889.44;1830762;78;21342;-69
2022/03/28 08:18:25;;;;;;;4.60;2.30;;;;;;;6.26;35.95;100875.77;1830674;78;21058;-67
2022/03/28 08:20:54;;;;;;;7.43;2.97;;;;;;;6.30;35.99;100860.27;1831276;78;20984;-67
2022/03/28 08:23:22;;;;;;;8.87;2.90;;;;;;;6.42;35.29;100864.16;1830475;78;21032;-69
2022/03/28 08:25:50;;;;;;;7.83;2.90;;;;;;;6.48;35.71;100867.33;1831170;78;21586;-69
2022/03/28 08:28:17;;;;;;;9.00;3.77;;;;;;;6.52;35.04;100860.75;1830090;78;21034;-69
2022/03/28 08:30:44;;;;;;;14.17;5.83;;;;;;;6.54;35.39;100858.78;1758206;82;21115;-68
2022/03/28 08:33:12;;;;;;;23.00;10.57;;;;;;;6.57;35.43;100855.36;1804344;78;21019;-70
2022/03/28 08:35:42;;;;;;;8.73;4.47;;;;;;;6.65;35.86;100851.53;1830383;78;21027;-69
2022/03/28 08:38:10;;;;;;;10.53;4.97;;;;;;;6.76;35.43;100859.20;1830400;78;21457;-68
2022/03/28 08:40:43;;;;;;;6.67;3.63;;;;;;;6.64;35.44;100849.84;1821940;78;21031;-70
2022/03/28 08:43:10;;;;;;;14.13;5.13;;;;;;;6.76;35.87;100845.27;1812871;78;21034;-69
2022/03/28 08:45:38;;;;;;;9.80;4.10;;;;;;;6.69;35.42;100846.75;1829912;78;21019;-69
2022/03/28 08:48:09;;;;;;;10.97;4.00;;;;;;;6.62;35.84;100847.77;1830938;78;21041;-69
2022/03/28 08:50:36;;;;;;;7.63;4.30;;;;;;;6.66;35.79;100834.94;1818474;78;21040;-69
2022/03/28 08:53:05;;;;;;;13.97;4.90;;;;;;;6.65;36.72;100832.72;1821955;78;21067;-70
2022/03/28 08:55:33;;;;;;;11.73;4.40;;;;;;;6.87;35.92;100841.72;1828509;78;21075;-69
2022/03/28 08:58:00;;;;;;;7.27;3.90;;;;;;;7.06;35.04;100834.79;1828288;78;21698;-69
2022/03/28 09:00:27;;;;;;;14.23;3.40;;;;;;;7.03;34.36;100837.26;1822843;78;21572;-69
2022/03/28 09:02:58;;;;;;;9.40;3.80;;;;;;;7.01;33.84;100837.38;1820430;78;21027;-69
2022/03/28 09:05:34;;;;;;;7.57;3.73;;;;;;;7.08;34.36;100835.01;1828483;78;21003;-69
2022/03/28 09:08:02;;;;;;;10.40;3.70;;;;;;;7.33;34.16;100838.31;1789426;80;21087;-69
2022/03/28 09:10:35;;;;;;;12.87;7.03;;;;;;;7.36;33.82;100831.34;1790614;80;21107;-69
2022/03/28 09:13:07;;;;;;;24.07;4.37;;;;;;;7.40;34.19;100835.46;1792761;80;21492;-71
2022/03/28 09:15:55;;;;;;;7.23;3.10;;;;;;;7.54;33.30;100820.36;1792662;80;21427;-68
2022/03/28 09:18:25;;;;;;;8.13;3.10;;;;;;;7.53;33.01;100813.76;1792684;80;21093;-69
2022/03/28 09:21:07;;;;;;;9.17;3.27;;;;;;;7.78;33.52;100809.78;1791247;80;21047;-68
2022/03/28 09:23:48;;;;;;;8.87;3.30;;;;;;;7.81;32.59;100796.06;1789262;80;21556;-68
2022/03/28 09:26:20;;;;;;;7.80;2.93;;;;;;;7.84;32.79;100803.84;1792488;80;21047;-69
2022/03/28 09:28:58;;;;;;;9.60;3.10;;;;;;;7.89;31.71;100796.72;1791958;79;20991;-69
2022/03/28 09:31:30;;;;;;;6.83;3.10;;;;;;;7.86;31.27;100800.55;1788240;80;21074;-69
2022/03/28 09:34:10;;;;;;;7.13;3.83;;;;;;;7.69;31.37;100789.90;1791596;80;21317;-69
2022/03/28 09:36:44;;;;;;;6.27;3.67;;;;;;;7.82;31.91;100781.59;1789270;80;21059;-69
2022/03/28 09:39:18;;;;;;;10.20;4.03;;;;;;;7.95;31.61;100775.49;1789450;80;21007;-69
2022/03/28 09:42:04;;;;;;;13.80;4.60;;;;;;;7.96;31.79;100770.95;1714051;83;21016;-70
2022/03/28 09:44:39;;;;;;;9.57;4.40;;;;;;;7.88;31.75;100753.27;1603908;89;22606;-70
2022/03/28 09:47:18;;;;;;;13.93;5.57;;;;;;;7.54;32.00;100745.00;1602655;89;21115;-69
2022/03/28 09:49:47;;;;;;;9.23;4.03;;;;;;;7.55;33.12;100752.57;1571958;89;21043;-70
2022/03/28 09:52:21;;;;;;;6.63;3.83;;;;;;;7.86;32.86;100745.34;1599863;89;21086;-70
2022/03/28 09:55:01;;;;;;;6.20;3.93;;;;;;;8.09;33.32;100745.98;1569650;91;21083;-70
2022/03/28 09:57:33;;;;;;;4.93;3.27;;;;;;;8.29;33.25;100737.95;1569702;90;21052;-70
2022/03/28 10:02:42;;;;;;;5.87;3.73;;;;;;;8.58;32.93;100731.77;1545983;92;21135;-70
2022/03/28 10:05:09;;;;;;;14.80;3.70;;;;;;;8.49;32.55;100722.67;1555713;90;21114;-68
2022/03/28 10:07:38;;;;;;;11.10;3.83;;;;;;;8.50;32.65;100729.78;1556678;91;21222;-69
2022/03/28 10:10:07;;;;;;;9.03;3.80;;;;;;;8.51;31.47;100723.38;1570833;90;21154;-70
2022/03/28 10:12:36;;;;;;;9.77;3.87;;;;;;;8.46;31.87;100725.14;1557009;90;21916;-69
2022/03/28 10:15:05;;;;;;;7.93;3.10;;;;;;;8.64;32.16;100719.05;1556460;92;21138;-69
2022/03/28 10:17:34;;;;;;;7.28;3.62;;;;;;;8.78;31.08;100716.42;1584499;90;21107;-70
2022/03/28 10:20:02;;;;;;;12.37;4.73;;;;;;;8.54;31.04;100705.08;1588276;90;21102;-69
2022/03/28 10:22:36;;;;;;;6.17;3.33;;;;;;;8.40;31.32;100720.80;1598894;89;21088;-69
2022/03/28 10:25:10;;;;;;;7.40;4.35;;;;;;;8.49;31.88;100710.55;1612380;89;21084;-71
2022/03/28 10:27:37;;;;;;;;;;;;;;;8.73;31.88;100710.13;1614514;89;21152;-69
2022/03/28 10:30:21;;;;;;;8.50;3.20;;;;;;;9.03;32.10;100696.96;1612356;89;20121;-69
2022/03/28 10:33:11;;;;;;;10.55;3.05;;;;;;;9.13;31.47;100692.37;1594309;89;21558;-69
2022/03/28 10:35:38;;;;;;;8.78;3.00;;;;;;;9.17;31.58;100690.26;1511529;94;21036;-70
2022/03/28 10:38:19;;;;;;;10.00;3.08;;;;;;;9.38;31.53;100690.03;1525438;93;21087;-70
2022/03/28 10:41:02;;;;;;;9.63;3.85;;;;;;;9.50;30.94;100676.70;1548802;90;21077;-68
2022/03/28 10:43:31;;;;;;;10.40;3.15;;;;;;;9.46;31.87;100660.97;1579382;91;21085;-69
2022/03/28 10:46:09;;;;;;;5.35;2.58;;;;;;;9.44;31.09;100661.63;1578352;91;21126;-70
2022/03/28 10:48:51;;;;;;;8.20;2.70;;;;;;;9.22;31.31;100673.11;1564223;91;21129;-68
2022/03/28 10:51:24;;;;;;;5.75;2.67;;;;;;;8.98;30.97;100662.83;1560430;89;21092;-70
2022/03/28 10:54:05;;;;;;;7.67;3.62;;;;;;;8.84;31.91;100650.64;1580634;90;21079;-68
2022/03/28 10:56:38;;;;;;;12.15;4.00;;;;;;;9.00;31.97;100654.59;1578560;89;21054;-68
2022/03/28 10:59:11;;;;;;;6.30;2.52;;;;;;;9.15;31.42;100641.47;1610521;86;21018;-69
2022/03/28 11:01:42;;;;;;;5.62;2.72;;;;;;;9.09;31.47;100632.97;1657552;86;21042;-69
2022/03/28 11:04:19;;;;;;;7.67;3.42;;;;;;;9.22;31.92;100636.67;1712202;83;21026;-69
2022/03/28 11:06:59;;;;;;;4.87;2.83;;;;;;;9.54;32.14;100626.47;1705158;83;21089;-69
2022/03/28 11:09:54;;;;;;;5.15;2.30;;;;;;;9.84;31.51;100625.30;1718594;80;21022;-69
2022/03/28 11:12:31;;;;;;;6.00;2.60;;;;;;;9.92;30.79;100613.75;1797673;80;21027;-68
2022/03/28 11:15:24;;;;;;;13.00;3.10;;;;;;;9.75;30.86;100629.75;1797790;80;21015;-68
2022/03/28 11:17:57;;;;;;;5.22;2.65;;;;;;;9.69;31.32;100615.01;1704894;82;21042;-69
2022/03/28 11:20:28;;;;;;;4.78;2.40;;;;;;;9.98;31.31;100606.36;1704890;83;21023;-68
2022/03/28 11:23:08;;;;;;;6.85;2.65;;;;;;;9.91;30.84;100593.96;1691652;83;21012;-69
2022/03/28 11:25:44;;;;;;;8.00;2.83;;;;;;;9.80;30.92;100584.74;1672799;84;21114;-68
2022/03/28 11:28:25;;;;;;;33.40;4.28;;;;;;;9.78;31.12;100574.59;1696493;84;21039;-69
2022/03/28 11:31:07;;;;;;;4.20;2.55;;;;;;;9.78;31.54;100578.14;1705441;84;21113;-69
2022/03/28 11:33:43;;;;;;;5.67;2.45;;;;;;;9.83;31.21;100566.37;1707220;84;21058;-69
2022/03/28 11:36:19;;;;;;;13.65;3.98;;;;;;;9.91;31.58;100549.39;1706359;84;21079;-74